createdAt,value
2018-02-08T00:00:58.838Z,93.18
2018-02-08T00:01:58.802Z,92.71
2018-02-08T00:02:58.760Z,93.47
2018-02-08T00:03:58.757Z,93.47
2018-02-08T00:04:58.701Z,93.47
2018-02-08T00:05:58.675Z,93.28
2018-02-08T00:06:58.637Z,92.99
2018-02-08T00:07:58.606Z,93.18
2018-02-08T00:08:58.616Z,92.99
2018-02-08T00:09:58.550Z,93.18
2018-02-08T00:10:58.509Z,93.18
2018-02-08T00:11:58.479Z,93.37
2018-02-08T00:12:58.445Z,92.90
2018-02-08T00:13:58.430Z,93.18
2018-02-08T00:14:58.394Z,93.18
2018-02-08T00:15:58.352Z,92.99
2018-02-08T00:16:58.325Z,93.09
2018-02-08T00:17:58.304Z,93.09
2018-02-08T00:18:58.270Z,92.71
2018-02-08T00:19:58.235Z,92.99
2018-02-08T00:20:58.207Z,93.18
2018-02-08T00:21:58.168Z,93.18
2018-02-08T00:22:58.197Z,93.18
2018-02-08T00:23:58.106Z,93.09
2018-02-08T00:24:58.076Z,92.99
2018-02-08T00:25:58.042Z,92.71
2018-02-08T00:26:58.009Z,93.65
2018-02-08T00:27:57.973Z,93.37
2018-02-08T00:28:57.963Z,92.90
2018-02-08T00:29:57.911Z,92.71
2018-02-08T00:30:57.882Z,92.61
2018-02-08T00:31:57.851Z,92.52
2018-02-08T00:32:57.814Z,93.84
2018-02-08T00:33:57.796Z,92.99
2018-02-08T00:34:57.768Z,93.09
2018-02-08T00:35:57.719Z,93.18
2018-02-08T00:36:57.727Z,93.18
2018-02-08T00:37:57.658Z,93.75
2018-02-08T00:38:57.626Z,93.37
2018-02-08T00:39:57.597Z,92.71
2018-02-08T00:40:57.561Z,92.71
2018-02-08T00:41:57.556Z,93.09
2018-02-08T00:42:57.510Z,92.71
2018-02-08T00:43:57.482Z,92.71
2018-02-08T00:44:57.753Z,92.90
2018-02-08T00:45:57.407Z,92.90
2018-02-08T00:46:57.394Z,93.09
2018-02-08T00:47:57.387Z,92.90
2018-02-08T00:48:57.315Z,92.90
2018-02-08T00:49:57.310Z,93.18
2018-02-08T00:50:57.247Z,92.61
2018-02-08T00:51:57.223Z,93.56
2018-02-08T00:52:57.204Z,92.52
2018-02-08T00:53:57.155Z,92.61
2018-02-08T00:54:57.154Z,92.52
2018-02-08T00:55:57.110Z,92.99
2018-02-08T00:56:57.057Z,92.61
2018-02-08T00:57:57.028Z,93.18
2018-02-08T00:58:56.994Z,93.28
2018-02-08T00:59:56.969Z,92.71
2018-02-08T01:00:56.958Z,92.99
2018-02-08T01:01:56.918Z,92.90
2018-02-08T01:02:56.897Z,92.80
2018-02-08T01:03:56.861Z,92.99
2018-02-08T01:04:56.813Z,92.43
2018-02-08T01:05:56.788Z,92.99
2018-02-08T01:06:56.750Z,92.71
2018-02-08T01:07:56.745Z,93.09
2018-02-08T01:08:56.685Z,92.90
2018-02-08T01:09:56.664Z,92.61
2018-02-08T01:10:56.622Z,92.71
2018-02-08T01:11:56.583Z,93.65
2018-02-08T01:12:56.634Z,93.09
2018-02-08T01:13:56.616Z,93.56
2018-02-08T01:14:56.502Z,93.75
2018-02-08T01:15:56.480Z,93.51
2018-02-08T01:16:56.426Z,93.70
2018-02-08T01:17:56.411Z,92.57
2018-02-08T01:18:56.363Z,92.85
2018-02-08T01:19:56.331Z,92.66
2018-02-08T01:20:56.297Z,92.47
2018-02-08T01:21:56.302Z,92.85
2018-02-08T01:22:56.256Z,93.32
2018-02-08T01:23:56.197Z,92.57
2018-02-08T01:24:56.168Z,92.57
2018-02-08T01:25:56.138Z,93.51
2018-02-08T01:26:56.116Z,93.89
2018-02-08T01:27:56.091Z,92.57
2018-02-08T01:28:56.052Z,93.13
2018-02-08T01:29:56.028Z,92.85
2018-02-08T01:30:55.986Z,92.95
2018-02-08T01:31:55.944Z,92.66
2018-02-08T01:32:55.915Z,92.66
2018-02-08T01:33:55.879Z,92.29
2018-02-08T01:34:55.862Z,92.76
2018-02-08T01:35:55.818Z,92.95
2018-02-08T01:36:55.849Z,93.61
2018-02-08T01:37:57.312Z,92.29
2018-02-08T01:38:55.727Z,92.57
2018-02-08T01:39:55.688Z,92.76
2018-02-08T01:40:55.659Z,92.38
2018-02-08T01:41:55.636Z,92.47
2018-02-08T01:42:57.328Z,92.66
2018-02-08T01:43:55.610Z,92.76
2018-02-08T01:44:55.526Z,92.38
2018-02-08T01:45:55.500Z,92.47
2018-02-08T01:46:57.325Z,92.76
2018-02-08T01:47:55.437Z,92.38
2018-02-08T01:48:55.406Z,92.38
2018-02-08T01:49:55.371Z,92.66
2018-02-08T01:50:55.342Z,92.57
2018-02-08T01:51:55.308Z,91.82
2018-02-08T01:52:55.277Z,92.47
2018-02-08T01:53:55.245Z,92.29
2018-02-08T01:54:55.212Z,92.38
2018-02-08T01:55:55.181Z,92.47
2018-02-08T01:56:55.147Z,92.29
2018-02-08T01:57:55.116Z,92.38
2018-02-08T01:58:55.084Z,92.10
2018-02-08T01:59:55.053Z,92.38
2018-02-08T02:00:55.020Z,92.19
2018-02-08T02:01:54.988Z,92.19
2018-02-08T02:02:54.957Z,92.47
2018-02-08T02:03:54.923Z,92.66
2018-02-08T02:04:54.900Z,92.57
2018-02-08T02:05:54.859Z,92.85
2018-02-08T02:06:54.828Z,93.32
2018-02-08T02:07:54.795Z,92.85
2018-02-08T02:08:54.763Z,93.04
2018-02-08T02:09:54.731Z,92.57
2018-02-08T02:10:54.699Z,93.61
2018-02-08T02:11:54.669Z,92.76
2018-02-08T02:12:54.636Z,92.47
2018-02-08T02:13:54.603Z,91.82
2018-02-08T02:14:54.572Z,91.82
2018-02-08T02:15:54.538Z,91.63
2018-02-08T02:16:54.507Z,92.57
2018-02-08T02:17:54.474Z,92.47
2018-02-08T02:18:54.443Z,92.57
2018-02-08T02:19:54.411Z,91.72
2018-02-08T02:20:54.379Z,91.82
2018-02-08T02:21:54.347Z,92.29
2018-02-08T02:22:54.323Z,92.47
2018-02-08T02:23:54.291Z,92.57
2018-02-08T02:24:54.250Z,92.00
2018-02-08T02:25:54.213Z,92.38
2018-02-08T02:26:54.192Z,91.82
2018-02-08T02:27:54.146Z,92.10
2018-02-08T02:28:54.122Z,91.82
2018-02-08T02:29:54.088Z,92.47
2018-02-08T02:30:54.055Z,92.47
2018-02-08T02:31:54.028Z,92.29
2018-02-08T02:32:54.007Z,92.38
2018-02-08T02:33:53.964Z,92.66
2018-02-08T02:34:53.930Z,92.10
2018-02-08T02:35:53.903Z,92.29
2018-02-08T02:36:53.878Z,92.76
2018-02-08T02:37:53.840Z,92.76
2018-02-08T02:38:53.800Z,92.76
2018-02-08T02:39:53.768Z,92.85
2018-02-08T02:40:53.735Z,92.95
2018-02-08T02:41:53.700Z,91.53
2018-02-08T02:42:53.677Z,92.57
2018-02-08T02:50:40.940Z,91.63
2018-02-08T02:51:05.800Z,91.35
2018-02-08T02:52:05.770Z,92.10
2018-02-08T02:53:05.742Z,91.53
2018-02-08T02:54:05.709Z,92.66
2018-02-08T02:55:05.673Z,92.47
2018-02-08T02:56:05.643Z,92.38
2018-02-08T02:57:05.608Z,92.38
2018-02-08T02:58:05.586Z,91.91
2018-02-08T02:59:05.546Z,92.00
2018-02-08T03:00:05.519Z,92.57
2018-02-08T03:01:05.486Z,91.63
2018-02-08T03:02:05.449Z,92.47
2018-02-08T03:03:05.420Z,92.57
2018-02-08T03:04:05.384Z,92.57
2018-02-08T03:05:05.356Z,91.72
2018-02-08T03:06:05.322Z,92.47
2018-02-08T03:07:05.287Z,92.38
2018-02-08T03:08:05.259Z,92.38
2018-02-08T03:09:05.226Z,92.66
2018-02-08T03:10:05.199Z,92.66
2018-02-08T03:11:05.165Z,92.47
2018-02-08T03:12:05.131Z,92.66
2018-02-08T03:13:05.098Z,92.29
2018-02-08T03:14:05.065Z,91.53
2018-02-08T03:15:05.044Z,91.72
2018-02-08T03:25:25.929Z,91.63
2018-02-08T03:26:23.334Z,92.00
2018-02-08T03:27:23.302Z,92.29
2018-02-08T03:28:23.334Z,92.29
2018-02-08T03:29:23.265Z,92.29
2018-02-08T03:30:23.217Z,92.38
2018-02-08T03:31:23.196Z,92.29
2018-02-08T03:32:23.144Z,92.76
2018-02-08T03:33:23.111Z,92.29
2018-02-08T03:34:23.078Z,92.57
2018-02-08T03:35:23.136Z,91.82
2018-02-08T03:36:23.076Z,92.57
2018-02-08T03:37:23.005Z,91.82
2018-02-08T03:38:22.958Z,92.00
2018-02-08T03:39:22.973Z,91.35
2018-02-08T03:40:22.945Z,91.35
2018-02-08T03:41:22.924Z,91.63
2018-02-08T03:42:22.815Z,91.53
2018-02-08T03:43:23.094Z,92.38
2018-02-08T03:44:22.763Z,92.38
2018-02-08T03:45:22.990Z,92.47
2018-02-08T03:46:22.716Z,92.85
2018-02-08T03:47:22.684Z,92.29
2018-02-08T03:48:22.691Z,92.10
2018-02-08T03:49:22.594Z,92.00
2018-02-08T03:50:22.672Z,91.91
2018-02-08T03:51:22.689Z,92.85
2018-02-08T03:52:22.512Z,91.96
2018-02-08T03:53:22.511Z,91.91
2018-02-08T03:54:22.449Z,91.44
2018-02-08T03:55:22.397Z,91.82
2018-02-08T03:56:22.396Z,91.82
2018-02-08T03:57:22.331Z,91.53
2018-02-08T03:58:22.363Z,91.53
2018-02-08T03:59:22.290Z,91.63
2018-02-08T04:00:22.306Z,92.29
2018-02-08T04:01:22.259Z,92.38
2018-02-08T04:02:22.182Z,91.35
2018-02-08T04:03:22.336Z,91.35
2018-02-08T04:04:22.150Z,91.82
2018-02-08T04:05:22.085Z,91.63
2018-02-08T04:06:22.131Z,91.63
2018-02-08T04:07:22.008Z,91.44
2018-02-08T04:08:21.979Z,91.35
2018-02-08T04:09:21.970Z,91.63
2018-02-08T04:10:21.913Z,91.44
2018-02-08T04:11:21.948Z,91.53
2018-02-08T04:12:21.853Z,92.47
2018-02-08T04:13:21.846Z,91.44
2018-02-08T04:14:21.780Z,91.44
2018-02-08T04:15:21.753Z,91.44
2018-02-08T04:16:21.723Z,91.25
2018-02-08T04:17:21.732Z,91.35
2018-02-08T04:18:21.704Z,91.06
2018-02-08T04:19:21.665Z,91.25
2018-02-08T04:20:21.587Z,91.44
2018-02-08T04:21:21.619Z,91.63
2018-02-08T04:22:21.583Z,91.72
2018-02-08T04:23:21.583Z,91.44
2018-02-08T04:24:21.503Z,91.44
2018-02-08T04:25:21.431Z,91.82
2018-02-08T04:26:21.403Z,91.82
2018-02-08T04:27:21.417Z,91.63
2018-02-08T04:28:21.385Z,92.47
2018-02-08T04:29:21.333Z,92.38
2018-02-08T04:30:21.302Z,91.91
2018-02-08T04:31:21.253Z,92.14
2018-02-08T04:32:21.219Z,92.00
2018-02-08T04:33:21.220Z,91.96
2018-02-08T04:34:21.146Z,91.44
2018-02-08T04:35:21.232Z,91.67
2018-02-08T04:36:21.066Z,91.35
2018-02-08T04:37:21.331Z,90.88
2018-02-08T04:38:21.068Z,91.25
2018-02-08T04:39:20.969Z,91.35
2018-02-08T04:40:20.973Z,91.35
2018-02-08T04:41:20.999Z,92.57
2018-02-08T04:42:20.918Z,91.63
2018-02-08T04:43:20.853Z,91.63
2018-02-08T04:44:20.807Z,91.16
2018-02-08T04:45:20.834Z,90.78
2018-02-08T04:46:20.794Z,91.53
2018-02-08T04:47:20.732Z,91.16
2018-02-08T04:48:20.788Z,90.69
2018-02-08T04:49:20.658Z,90.78
2018-02-08T04:50:20.613Z,91.06
2018-02-08T04:51:20.595Z,91.53
2018-02-08T04:52:20.631Z,91.25
2018-02-08T04:53:20.533Z,91.16
2018-02-08T04:54:20.520Z,91.72
2018-02-08T04:55:20.468Z,91.25
2018-02-08T04:56:20.433Z,91.35
2018-02-08T04:57:20.422Z,91.35
2018-02-08T04:58:20.382Z,91.63
2018-02-08T04:59:20.340Z,91.72
2018-02-08T05:00:20.324Z,91.16
2018-02-08T05:01:20.302Z,91.25
2018-02-08T05:02:20.221Z,91.44
2018-02-08T05:03:20.199Z,91.16
2018-02-08T05:04:20.172Z,91.25
2018-02-08T05:05:20.162Z,91.53
2018-02-08T05:06:20.120Z,91.35
2018-02-08T05:07:20.108Z,91.16
2018-02-08T05:08:20.042Z,91.44
2018-02-08T05:09:20.008Z,91.63
2018-02-08T05:10:19.969Z,91.44
2018-02-08T05:11:19.943Z,91.25
2018-02-08T05:12:19.915Z,91.35
2018-02-08T05:13:19.865Z,91.63
2018-02-08T05:14:19.864Z,91.25
2018-02-08T05:15:19.813Z,91.72
2018-02-08T05:16:19.812Z,91.16
2018-02-08T05:17:19.741Z,91.16
2018-02-08T05:18:19.721Z,91.35
2018-02-08T05:19:19.716Z,91.63
2018-02-08T05:20:19.660Z,91.91
2018-02-08T05:21:19.682Z,91.35
2018-02-08T05:22:19.585Z,91.53
2018-02-08T05:23:19.555Z,91.06
2018-02-08T05:24:19.634Z,91.06
2018-02-08T05:25:19.488Z,91.25
2018-02-08T05:26:19.515Z,91.25
2018-02-08T05:27:19.410Z,91.35
2018-02-08T05:28:19.378Z,92.29
2018-02-08T05:29:19.346Z,91.11
2018-02-08T05:30:19.325Z,91.25
2018-02-08T05:31:19.282Z,91.06
2018-02-08T05:32:19.250Z,90.88
2018-02-08T05:33:19.229Z,91.25
2018-02-08T05:34:19.194Z,91.49
2018-02-08T05:35:19.149Z,91.86
2018-02-08T05:36:19.118Z,91.02
2018-02-08T05:37:19.084Z,91.49
2018-02-08T05:38:19.064Z,91.20
2018-02-08T05:39:19.024Z,91.67
2018-02-08T05:40:19.012Z,91.58
2018-02-08T05:41:18.957Z,91.39
2018-02-08T05:42:18.924Z,91.39
2018-02-08T05:43:18.891Z,90.92
2018-02-08T05:44:18.865Z,91.30
2018-02-08T05:45:18.886Z,91.39
2018-02-08T05:46:18.792Z,91.39
2018-02-08T05:47:18.760Z,91.11
2018-02-08T05:48:18.740Z,91.30
2018-02-08T05:49:18.706Z,91.67
2018-02-08T05:50:18.659Z,91.30
2018-02-08T05:51:18.647Z,91.39
2018-02-08T05:52:18.607Z,91.30
2018-02-08T05:53:18.574Z,91.67
2018-02-08T05:54:18.531Z,92.05
2018-02-08T05:55:18.508Z,92.33
2018-02-08T05:56:18.467Z,92.14
2018-02-08T05:57:18.445Z,90.92
2018-02-08T05:58:18.398Z,91.11
2018-02-08T05:59:18.378Z,91.49
2018-02-08T06:00:18.338Z,91.02
2018-02-08T06:01:18.313Z,91.11
2018-02-08T06:02:18.270Z,91.39
2018-02-08T06:03:18.248Z,91.39
2018-02-08T06:04:18.204Z,91.39
2018-02-08T06:05:18.187Z,91.30
2018-02-08T06:06:18.136Z,91.20
2018-02-08T06:07:18.116Z,91.67
2018-02-08T06:08:18.084Z,91.20
2018-02-08T06:09:18.040Z,91.11
2018-02-08T06:10:18.007Z,91.49
2018-02-08T06:11:17.973Z,91.77
2018-02-08T06:12:17.953Z,92.43
2018-02-08T06:13:17.921Z,92.05
2018-02-08T06:14:17.875Z,92.33
2018-02-08T06:15:17.845Z,91.86
2018-02-08T06:16:17.826Z,92.14
2018-02-08T06:17:17.778Z,92.52
2018-02-08T06:18:17.746Z,93.28
2018-02-08T06:19:17.724Z,91.77
2018-02-08T06:20:17.680Z,92.14
2018-02-08T06:21:17.660Z,91.39
2018-02-08T06:22:17.614Z,91.02
2018-02-08T06:23:17.583Z,91.30
2018-02-08T06:24:17.559Z,91.49
2018-02-08T06:25:17.529Z,91.86
2018-02-08T06:26:17.495Z,92.62
2018-02-08T06:27:17.452Z,92.52
2018-02-08T06:28:17.417Z,92.43
2018-02-08T06:29:17.972Z,91.58
2018-02-08T06:30:17.364Z,91.67
2018-02-08T06:31:17.321Z,91.67
2018-02-08T06:32:17.287Z,92.52
2018-02-08T06:33:17.257Z,92.52
2018-02-08T06:34:17.222Z,92.71
2018-02-08T06:35:17.188Z,93.37
2018-02-08T06:36:17.167Z,92.52
2018-02-08T06:37:17.129Z,92.43
2018-02-08T06:38:17.102Z,92.05
2018-02-08T06:39:17.059Z,91.96
2018-02-08T06:40:17.025Z,92.33
2018-02-08T06:41:16.992Z,91.96
2018-02-08T06:42:16.960Z,91.49
2018-02-08T06:43:16.926Z,91.58
2018-02-08T06:44:16.894Z,92.33
2018-02-08T06:45:16.875Z,91.49
2018-02-08T06:46:16.841Z,92.24
2018-02-08T06:47:16.808Z,91.39
2018-02-08T06:48:16.776Z,90.83
2018-02-08T06:49:16.731Z,91.39
2018-02-08T06:50:16.710Z,91.39
2018-02-08T06:51:16.678Z,91.67
2018-02-08T06:52:16.645Z,91.30
2018-02-08T06:53:16.613Z,91.58
2018-02-08T06:54:16.579Z,91.58
2018-02-08T06:55:16.534Z,91.49
2018-02-08T06:56:16.514Z,91.49
2018-02-08T06:57:16.471Z,91.20
2018-02-08T06:58:16.495Z,91.39
2018-02-08T06:59:16.406Z,91.30
2018-02-08T07:00:16.370Z,91.20
2018-02-08T07:01:16.339Z,92.33
2018-02-08T07:02:16.306Z,91.20
2018-02-08T07:03:16.285Z,91.20
2018-02-08T07:04:16.242Z,91.11
2018-02-08T07:05:16.207Z,91.39
2018-02-08T07:06:16.174Z,91.39
2018-02-08T07:07:16.158Z,91.02
2018-02-08T07:08:16.110Z,91.77
2018-02-08T07:09:16.079Z,91.39
2018-02-08T07:10:16.045Z,91.39
2018-02-08T07:11:16.026Z,91.25
2018-02-08T07:12:15.983Z,91.25
2018-02-08T07:13:15.960Z,90.78
2018-02-08T07:14:15.916Z,91.25
2018-02-08T07:15:15.883Z,91.25
2018-02-08T07:16:15.860Z,92.38
2018-02-08T07:17:15.830Z,91.72
2018-02-08T07:18:15.794Z,91.44
2018-02-08T07:19:15.751Z,91.63
2018-02-08T07:20:15.720Z,91.25
2018-02-08T07:21:15.686Z,91.35
2018-02-08T07:22:15.654Z,92.19
2018-02-08T07:23:15.621Z,91.63
2018-02-08T07:24:15.601Z,92.00
2018-02-08T07:25:15.557Z,91.72
2018-02-08T07:26:15.522Z,91.53
2018-02-08T07:27:15.492Z,91.91
2018-02-08T07:28:15.472Z,92.38
2018-02-08T07:29:15.448Z,92.57
2018-02-08T07:30:15.395Z,92.57
2018-02-08T07:31:15.363Z,92.10
2018-02-08T07:32:15.331Z,92.57
2018-02-08T07:33:15.298Z,93.32
2018-02-08T07:34:15.277Z,91.91
2018-02-08T07:35:15.232Z,92.57
2018-02-08T07:36:15.218Z,92.76
2018-02-08T07:37:15.168Z,92.57
2018-02-08T07:38:15.148Z,91.53
2018-02-08T07:39:15.104Z,91.63
2018-02-08T07:40:15.074Z,91.25
2018-02-08T07:41:15.040Z,91.35
2018-02-08T07:42:15.020Z,91.91
2018-02-08T07:43:14.976Z,92.10
2018-02-08T07:44:14.943Z,91.72
2018-02-08T07:45:14.911Z,91.44
2018-02-08T07:46:14.880Z,91.25
2018-02-08T07:47:14.854Z,91.53
2018-02-08T07:48:14.816Z,91.25
2018-02-08T07:49:14.782Z,91.53
2018-02-08T07:50:14.761Z,91.44
2018-02-08T07:51:14.730Z,91.06
2018-02-08T07:52:14.688Z,91.44
2018-02-08T07:53:14.653Z,90.97
2018-02-08T07:54:14.634Z,91.63
2018-02-08T07:55:14.590Z,91.72
2018-02-08T07:56:14.570Z,90.97
2018-02-08T07:57:14.539Z,91.44
2018-02-08T07:58:14.495Z,91.53
2018-02-08T07:59:14.474Z,91.16
2018-02-08T08:00:14.448Z,91.35
2018-02-08T08:01:14.400Z,91.35
2018-02-08T08:02:14.367Z,90.31
2018-02-08T08:03:14.335Z,90.88
2018-02-08T08:04:14.304Z,91.53
2018-02-08T08:05:14.272Z,91.30
2018-02-08T08:06:14.241Z,91.30
2018-02-08T08:07:14.222Z,91.49
2018-02-08T08:08:14.177Z,91.58
2018-02-08T08:09:14.148Z,91.20
2018-02-08T08:10:14.126Z,90.83
2018-02-08T08:11:14.082Z,91.58
2018-02-08T08:12:14.053Z,91.20
2018-02-08T08:13:14.035Z,90.92
2018-02-08T08:14:13.989Z,91.11
2018-02-08T08:15:13.970Z,90.83
2018-02-08T08:16:13.926Z,91.30
2018-02-08T08:17:13.894Z,91.20
2018-02-08T08:18:13.865Z,91.11
2018-02-08T08:19:13.832Z,91.49
2018-02-08T08:20:13.816Z,90.92
2018-02-08T08:21:13.773Z,91.11
2018-02-08T08:22:13.740Z,90.92
2018-02-08T08:23:13.720Z,91.39
2018-02-08T08:24:13.688Z,91.11
2018-02-08T08:25:13.658Z,91.44
2018-02-08T08:26:13.613Z,91.16
2018-02-08T08:27:13.583Z,91.35
2018-02-08T08:28:13.554Z,90.78
2018-02-08T08:29:13.523Z,90.97
2018-02-08T08:30:13.503Z,91.06
2018-02-08T08:31:13.473Z,90.59
2018-02-08T08:32:13.431Z,91.16
2018-02-08T08:33:13.411Z,90.97
2018-02-08T08:34:13.394Z,91.35
2018-02-08T08:35:13.337Z,91.06
2018-02-08T08:36:13.363Z,91.25
2018-02-08T08:37:13.291Z,91.06
2018-02-08T08:38:13.257Z,90.87
2018-02-08T08:39:13.228Z,91.30
2018-02-08T08:40:13.203Z,91.49
2018-02-08T08:41:13.168Z,91.58
2018-02-08T08:42:13.127Z,91.86
2018-02-08T08:43:13.097Z,91.77
2018-02-08T08:44:13.069Z,92.33
2018-02-08T08:45:13.036Z,93.94
2018-02-08T08:46:13.004Z,91.77
2018-02-08T08:47:12.988Z,92.61
2018-02-08T08:48:13.284Z,92.43
2018-02-08T08:49:12.929Z,93.09
2018-02-08T08:50:12.888Z,91.96
2018-02-08T08:51:12.870Z,92.61
2018-02-08T08:52:12.838Z,92.52
2018-02-08T08:53:12.812Z,92.43
2018-02-08T08:54:12.765Z,91.96
2018-02-08T08:55:12.748Z,91.77
2018-02-08T08:56:12.718Z,92.61
2018-02-08T08:57:12.686Z,92.05
2018-02-08T08:58:12.645Z,91.49
2018-02-08T08:59:12.630Z,91.96
2018-02-08T09:00:12.599Z,92.99
2018-02-08T09:01:12.556Z,92.71
2018-02-08T09:02:12.528Z,92.99
2018-02-08T09:03:12.498Z,95.36
2018-02-08T09:04:12.468Z,93.84
2018-02-08T09:05:12.451Z,93.09
2018-02-08T09:06:12.442Z,92.14
2018-02-08T09:07:12.380Z,92.61
2018-02-08T09:08:12.349Z,93.28
2018-02-08T09:09:12.331Z,93.28
2018-02-08T09:10:12.301Z,93.28
2018-02-08T09:11:12.272Z,93.56
2018-02-08T09:12:12.241Z,93.09
2018-02-08T09:13:12.212Z,93.09
2018-02-08T09:14:12.172Z,92.33
2018-02-08T09:15:12.152Z,92.52
2018-02-08T09:16:12.123Z,93.09
2018-02-08T09:17:12.098Z,93.94
2018-02-08T09:18:12.052Z,92.71
2018-02-08T09:19:12.021Z,93.47
2018-02-08T09:20:11.991Z,93.18
2018-02-08T09:21:11.963Z,92.61
2018-02-08T09:22:11.933Z,93.66
2018-02-08T09:23:11.918Z,92.61
2018-02-08T09:24:11.885Z,92.33
2018-02-08T09:25:11.843Z,91.67
2018-02-08T09:26:11.824Z,92.14
2018-02-08T09:27:11.802Z,92.33
2018-02-08T09:28:11.752Z,92.61
2018-02-08T09:29:11.723Z,93.37
2018-02-08T09:30:11.693Z,93.47
2018-02-08T09:31:11.675Z,92.99
2018-02-08T09:32:11.634Z,93.28
2018-02-08T09:33:11.606Z,93.47
2018-02-08T09:34:11.587Z,92.29
2018-02-08T09:35:11.547Z,92.29
2018-02-08T09:36:11.515Z,92.57
2018-02-08T09:37:11.487Z,92.76
2018-02-08T09:38:11.468Z,93.70
2018-02-08T09:39:11.426Z,93.23
2018-02-08T09:40:11.395Z,93.23
2018-02-08T09:41:11.366Z,93.42
2018-02-08T09:42:11.344Z,92.10
2018-02-08T09:43:11.307Z,92.29
2018-02-08T09:44:11.276Z,92.10
2018-02-08T09:45:11.247Z,91.91
2018-02-08T09:46:11.217Z,91.34
2018-02-08T09:47:11.199Z,92.47
2018-02-08T09:48:11.174Z,91.82
2018-02-08T09:49:11.131Z,91.63
2018-02-08T09:50:11.100Z,91.39
2018-02-08T09:51:11.082Z,90.54
2018-02-08T09:52:11.052Z,89.97
2018-02-08T09:53:11.013Z,90.06
2018-02-08T09:54:10.982Z,90.35
2018-02-08T09:55:10.963Z,90.54
2018-02-08T09:56:10.924Z,90.20
2018-02-08T09:57:10.895Z,88.98
2018-02-08T09:58:10.877Z,88.50
2018-02-08T09:59:10.849Z,88.12
2018-02-08T10:00:10.807Z,87.65
2018-02-08T10:01:10.781Z,87.46
2018-02-08T10:02:10.749Z,87.46
2018-02-08T10:03:10.735Z,87.18
2018-02-08T10:04:10.708Z,86.47
2018-02-08T10:05:10.668Z,85.33
2018-02-08T10:06:10.650Z,84.86
2018-02-08T10:07:10.612Z,84.67
2018-02-08T10:08:10.584Z,84.58
2018-02-08T10:09:10.569Z,86.37
2018-02-08T10:10:10.530Z,87.51
2018-02-08T10:11:10.502Z,85.61
2018-02-08T10:12:10.489Z,84.48
2018-02-08T10:13:10.449Z,82.91
2018-02-08T10:14:10.485Z,81.68
2018-02-08T10:15:10.397Z,81.30
2018-02-08T10:16:10.382Z,81.30
2018-02-08T10:17:10.345Z,80.83
2018-02-08T10:18:10.321Z,81.96
2018-02-08T10:19:10.305Z,82.91
2018-02-08T10:20:10.272Z,81.82
2018-02-08T10:21:10.254Z,80.11
2018-02-08T10:22:10.230Z,78.03
2018-02-08T10:23:10.191Z,75.95
2018-02-08T10:24:10.170Z,73.68
2018-02-08T10:25:10.144Z,74.71
2018-02-08T10:26:10.130Z,76.42
2018-02-08T10:27:10.098Z,73.11
2018-02-08T10:28:10.070Z,73.20
2018-02-08T10:29:10.046Z,71.31
2018-02-08T10:30:10.022Z,70.45
2018-02-08T10:31:10.005Z,71.84
2018-02-08T10:32:09.976Z,74.40
2018-02-08T10:33:09.950Z,74.33
2018-02-08T10:34:09.929Z,72.25
2018-02-08T10:35:09.905Z,72.82
2018-02-08T10:36:09.885Z,73.86
2018-02-08T10:37:09.860Z,72.73
2018-02-08T10:38:09.836Z,73.86
2018-02-08T10:39:09.826Z,71.88
2018-02-08T10:40:09.791Z,72.06
2018-02-08T10:41:09.769Z,72.77
2018-02-08T10:42:09.746Z,72.86
2018-02-08T10:43:09.722Z,70.68
2018-02-08T10:44:09.713Z,73.33
2018-02-08T10:45:09.678Z,69.92
2018-02-08T10:46:09.668Z,68.88
2018-02-08T10:47:09.636Z,68.21
2018-02-08T10:48:09.612Z,65.66
2018-02-08T10:49:09.593Z,66.03
2018-02-08T10:50:09.582Z,66.09
2018-02-08T10:51:09.560Z,68.40
2018-02-08T10:52:09.530Z,70.11
2018-02-08T10:53:09.508Z,70.11
2018-02-08T10:54:09.484Z,67.08
2018-02-08T10:55:09.472Z,64.81
2018-02-08T10:56:09.446Z,62.72
2018-02-08T10:57:09.527Z,62.47
2018-02-08T10:58:09.433Z,63.79
2018-02-08T10:59:09.394Z,62.37
2018-02-08T11:00:09.373Z,63.45
2018-02-08T11:01:09.344Z,63.35
2018-02-08T11:02:09.320Z,62.50
2018-02-08T11:03:09.302Z,59.66
2018-02-08T11:04:09.284Z,59.84
2018-02-08T11:05:09.274Z,59.94
2018-02-08T11:06:09.254Z,58.99
2018-02-08T11:07:09.222Z,57.66
2018-02-08T11:08:09.205Z,56.52
2018-02-08T11:09:09.197Z,55.76
2018-02-08T11:10:09.165Z,58.04
2018-02-08T11:11:09.147Z,60.31
2018-02-08T11:12:09.128Z,60.53
2018-02-08T11:13:09.110Z,57.59
2018-02-08T11:14:09.103Z,56.55
2018-02-08T11:15:09.072Z,55.41
2018-02-08T11:16:09.069Z,56.84
2018-02-08T11:17:09.034Z,55.82
2018-02-08T11:18:09.017Z,54.18
2018-02-08T11:19:09.008Z,56.08
2018-02-08T11:20:08.992Z,60.06
2018-02-08T11:21:08.961Z,57.62
2018-02-08T11:22:08.956Z,55.89
2018-02-08T11:23:08.938Z,55.51
2018-02-08T11:24:08.913Z,55.32
2018-02-08T11:25:08.903Z,56.15
2018-02-08T11:26:08.885Z,58.26
2018-02-08T11:27:08.859Z,56.46
2018-02-08T11:28:08.840Z,57.50
2018-02-08T11:29:08.833Z,57.91
2018-02-08T11:30:08.846Z,55.91
2018-02-08T11:31:08.798Z,55.16
2018-02-08T11:32:08.781Z,55.16
2018-02-08T11:33:08.763Z,53.96
2018-02-08T11:34:08.747Z,54.88
2018-02-08T11:35:08.719Z,56.49
2018-02-08T11:36:08.701Z,57.82
2018-02-08T11:37:08.685Z,59.84
2018-02-08T11:38:08.667Z,59.08
2018-02-08T11:39:08.650Z,57.31
2018-02-08T11:40:08.645Z,57.34
2018-02-08T11:41:08.628Z,55.60
2018-02-08T11:42:08.621Z,55.41
2018-02-08T11:43:08.595Z,55.89
2018-02-08T11:44:08.566Z,55.32
2018-02-08T11:45:08.563Z,54.49
2018-02-08T11:46:08.544Z,53.89
2018-02-08T11:47:08.528Z,54.94
2018-02-08T11:48:08.511Z,54.06
2018-02-08T11:49:08.481Z,55.07
2018-02-08T11:50:08.466Z,57.09
2018-02-08T11:51:08.461Z,54.75
2018-02-08T11:52:08.442Z,53.42
2018-02-08T11:53:08.422Z,52.78
2018-02-08T11:54:08.396Z,52.72
2018-02-08T11:55:08.383Z,50.41
2018-02-08T11:56:08.376Z,51.14
2018-02-08T11:57:08.359Z,50.76
2018-02-08T11:58:08.331Z,52.85
2018-02-08T11:59:08.314Z,52.37
2018-02-08T12:00:08.297Z,52.00
2018-02-08T12:01:08.281Z,52.19
2018-02-08T12:02:08.274Z,51.74
2018-02-08T12:03:08.247Z,50.60
2018-02-08T12:04:08.233Z,50.70
2018-02-08T12:05:08.213Z,49.96
2018-02-08T12:06:08.215Z,50.05
2018-02-08T12:07:08.182Z,49.87
2018-02-08T12:08:08.177Z,47.99
2018-02-08T12:09:08.149Z,48.06
2018-02-08T12:10:08.144Z,49.79
2018-02-08T12:11:08.129Z,50.93
2018-02-08T12:12:08.134Z,49.01
2018-02-08T12:13:08.086Z,49.49
2018-02-08T12:14:08.072Z,49.01
2018-02-08T12:15:08.057Z,49.58
2018-02-08T12:16:08.053Z,49.58
2018-02-08T12:17:08.029Z,48.08
2018-02-08T12:18:08.021Z,48.37
2018-02-08T12:19:07.995Z,48.94
2018-02-08T12:20:07.980Z,48.21
2018-02-08T12:21:07.969Z,46.30
2018-02-08T12:22:07.960Z,45.92
2018-02-08T12:23:07.938Z,46.97
2018-02-08T12:24:07.932Z,46.20
2018-02-08T12:25:07.918Z,44.87
2018-02-08T12:26:07.902Z,44.59
2018-02-08T12:27:07.874Z,44.45
2018-02-08T12:28:07.873Z,45.78
2018-02-08T12:29:07.859Z,47.04
2018-02-08T12:30:07.833Z,45.14
2018-02-08T12:31:07.854Z,45.02
2018-02-08T12:32:07.831Z,47.02
2018-02-08T12:33:07.792Z,45.28
2018-02-08T12:34:07.787Z,45.95
2018-02-08T12:35:07.784Z,47.56
2018-02-08T12:36:07.803Z,47.18
2018-02-08T12:37:07.769Z,46.80
2018-02-08T12:38:07.729Z,45.09
2018-02-08T12:39:07.716Z,45.00
2018-02-08T12:40:07.708Z,44.71
2018-02-08T12:41:07.678Z,46.04
2018-02-08T12:42:07.722Z,47.37
2018-02-08T12:43:07.658Z,45.66
2018-02-08T12:44:07.641Z,45.38
2018-02-08T12:45:07.658Z,45.95
2018-02-08T12:46:07.601Z,45.66
2018-02-08T12:47:07.607Z,45.57
2018-02-08T12:48:07.576Z,47.18
2018-02-08T12:49:07.559Z,46.99
2018-02-08T12:50:07.525Z,46.80
2018-02-08T12:51:07.544Z,47.20
2018-02-08T12:52:07.517Z,46.47
2018-02-08T12:53:07.542Z,46.37
2018-02-08T12:54:07.594Z,45.16
2018-02-08T12:55:07.571Z,44.31
2018-02-08T12:56:07.503Z,45.45
2018-02-08T12:57:07.605Z,45.16
2018-02-08T12:58:07.405Z,44.21
2018-02-08T12:59:07.419Z,43.43
2018-02-08T13:00:07.420Z,45.04
2018-02-08T13:01:07.346Z,44.85
2018-02-08T13:02:07.328Z,44.83
2018-02-08T13:03:07.383Z,45.02
2018-02-08T13:04:07.301Z,45.59
2018-02-08T13:05:07.311Z,45.78
2018-02-08T13:06:07.290Z,46.83
2018-02-08T13:07:07.258Z,46.75
2018-02-08T13:08:07.233Z,45.50